sensor_id;sensor_type;location;lat;lon;timestamp;P1;durP1;ratioP1;P2;durP2;ratioP2
10491;SDS011;5293;51.464;-2.566;2023-04-25T00:00:52;8.87;;;4.97;;
10491;SDS011;5293;51.464;-2.566;2023-04-25T00:03:18;10.53;;;4.23;;
10491;SDS011;5293;51.464;-2.566;2023-04-25T00:05:44;10.47;;;4.27;;
10491;SDS011;5293;51.464;-2.566;2023-04-25T00:08:10;14.63;;;4.47;;
10491;SDS011;5293;51.464;-2.566;2023-04-25T00:10:36;9.97;;;4.40;;
10491;SDS011;5293;51.464;-2.566;2023-04-25T00:13:01;9.10;;;4.60;;
10491;SDS011;5293;51.464;-2.566;2023-04-25T00:15:27;7.20;;;4.77;;
10491;SDS011;5293;51.464;-2.566;2023-04-25T00:17:55;11.03;;;5.03;;
10491;SDS011;5293;51.464;-2.566;2023-04-25T00:20:21;9.90;;;4.83;;
10491;SDS011;5293;51.464;-2.566;2023-04-25T00:22:48;9.57;;;4.40;;
10491;SDS011;5293;51.464;-2.566;2023-04-25T00:25:14;14.77;;;4.57;;
10491;SDS011;5293;51.464;-2.566;2023-04-25T00:27:40;9.93;;;3.83;;
10491;SDS011;5293;51.464;-2.566;2023-04-25T00:30:07;9.50;;;4.63;;
10491;SDS011;5293;51.464;-2.566;2023-04-25T00:32:33;14.27;;;5.17;;
10491;SDS011;5293;51.464;-2.566;2023-04-25T00:34:59;10.20;;;5.20;;
10491;SDS011;5293;51.464;-2.566;2023-04-25T00:37:24;13.40;;;4.30;;
10491;SDS011;5293;51.464;-2.566;2023-04-25T00:39:50;10.77;;;4.10;;
10491;SDS011;5293;51.464;-2.566;2023-04-25T00:42:18;9.80;;;4.60;;
10491;SDS011;5293;51.464;-2.566;2023-04-25T00:44:44;11.93;;;5.00;;
10491;SDS011;5293;51.464;-2.566;2023-04-25T00:47:10;8.70;;;4.20;;
10491;SDS011;5293;51.464;-2.566;2023-04-25T00:49:36;10.23;;;4.53;;
10491;SDS011;5293;51.464;-2.566;2023-04-25T00:52:02;10.47;;;4.97;;
10491;SDS011;5293;51.464;-2.566;2023-04-25T00:54:27;13.20;;;5.33;;
10491;SDS011;5293;51.464;-2.566;2023-04-25T00:56:53;10.73;;;5.47;;
10491;SDS011;5293;51.464;-2.566;2023-04-25T00:59:19;7.43;;;4.80;;
10491;SDS011;5293;51.464;-2.566;2023-04-25T01:01:46;15.43;;;5.40;;
10491;SDS011;5293;51.464;-2.566;2023-04-25T01:04:11;12.33;;;5.03;;
10491;SDS011;5293;51.464;-2.566;2023-04-25T01:06:38;10.57;;;5.73;;
10491;SDS011;5293;51.464;-2.566;2023-04-25T01:09:04;10.57;;;5.57;;
10491;SDS011;5293;51.464;-2.566;2023-04-25T01:11:30;10.80;;;5.57;;
10491;SDS011;5293;51.464;-2.566;2023-04-25T01:13:56;9.67;;;5.67;;
10491;SDS011;5293;51.464;-2.566;2023-04-25T01:16:22;11.77;;;6.63;;
10491;SDS011;5293;51.464;-2.566;2023-04-25T01:18:51;9.13;;;5.37;;
10491;SDS011;5293;51.464;-2.566;2023-04-25T01:21:17;11.47;;;6.00;;
10491;SDS011;5293;51.464;-2.566;2023-04-25T01:23:43;18.43;;;5.70;;
10491;SDS011;5293;51.464;-2.566;2023-04-25T01:26:10;9.70;;;5.60;;
10491;SDS011;5293;51.464;-2.566;2023-04-25T01:28:36;12.40;;;6.07;;
10491;SDS011;5293;51.464;-2.566;2023-04-25T01:31:06;13.17;;;6.03;;
10491;SDS011;5293;51.464;-2.566;2023-04-25T01:33:31;9.20;;;5.57;;
10491;SDS011;5293;51.464;-2.566;2023-04-25T01:35:57;15.63;;;6.53;;
10491;SDS011;5293;51.464;-2.566;2023-04-25T01:38:23;14.23;;;6.00;;
10491;SDS011;5293;51.464;-2.566;2023-04-25T01:40:50;12.53;;;6.57;;
10491;SDS011;5293;51.464;-2.566;2023-04-25T01:43:17;11.67;;;6.87;;
10491;SDS011;5293;51.464;-2.566;2023-04-25T01:45:43;15.97;;;7.30;;
10491;SDS011;5293;51.464;-2.566;2023-04-25T01:48:09;16.20;;;7.13;;
10491;SDS011;5293;51.464;-2.566;2023-04-25T01:50:36;10.90;;;6.63;;
10491;SDS011;5293;51.464;-2.566;2023-04-25T01:53:03;13.53;;;7.03;;
10491;SDS011;5293;51.464;-2.566;2023-04-25T01:55:29;12.63;;;6.30;;
10491;SDS011;5293;51.464;-2.566;2023-04-25T01:57:55;12.40;;;6.93;;
10491;SDS011;5293;51.464;-2.566;2023-04-25T02:00:21;11.07;;;6.70;;
10491;SDS011;5293;51.464;-2.566;2023-04-25T02:02:47;17.70;;;6.50;;
10491;SDS011;5293;51.464;-2.566;2023-04-25T02:05:13;10.13;;;6.57;;
10491;SDS011;5293;51.464;-2.566;2023-04-25T02:07:39;13.53;;;6.90;;
10491;SDS011;5293;51.464;-2.566;2023-04-25T02:10:04;18.37;;;7.00;;
10491;SDS011;5293;51.464;-2.566;2023-04-25T02:12:31;17.83;;;7.13;;
10491;SDS011;5293;51.464;-2.566;2023-04-25T02:14:56;12.40;;;7.50;;
10491;SDS011;5293;51.464;-2.566;2023-04-25T02:17:22;15.47;;;7.60;;
10491;SDS011;5293;51.464;-2.566;2023-04-25T02:19:48;16.20;;;7.00;;
10491;SDS011;5293;51.464;-2.566;2023-04-25T02:22:14;17.87;;;7.53;;
10491;SDS011;5293;51.464;-2.566;2023-04-25T02:24:39;13.23;;;7.07;;
10491;SDS011;5293;51.464;-2.566;2023-04-25T02:27:05;15.20;;;7.47;;
10491;SDS011;5293;51.464;-2.566;2023-04-25T02:29:31;11.37;;;7.17;;
10491;SDS011;5293;51.464;-2.566;2023-04-25T02:31:56;19.50;;;7.77;;
10491;SDS011;5293;51.464;-2.566;2023-04-25T02:34:22;12.53;;;7.13;;
10491;SDS011;5293;51.464;-2.566;2023-04-25T02:36:48;14.53;;;7.37;;
10491;SDS011;5293;51.464;-2.566;2023-04-25T02:39:17;15.33;;;7.00;;
10491;SDS011;5293;51.464;-2.566;2023-04-25T02:41:43;15.77;;;7.13;;
10491;SDS011;5293;51.464;-2.566;2023-04-25T02:44:08;16.70;;;7.30;;
10491;SDS011;5293;51.464;-2.566;2023-04-25T02:46:34;15.97;;;7.23;;
10491;SDS011;5293;51.464;-2.566;2023-04-25T02:49:00;17.03;;;8.10;;
10491;SDS011;5293;51.464;-2.566;2023-04-25T02:51:26;18.40;;;8.10;;
10491;SDS011;5293;51.464;-2.566;2023-04-25T02:53:51;14.60;;;7.53;;
10491;SDS011;5293;51.464;-2.566;2023-04-25T02:56:17;10.30;;;6.33;;
10491;SDS011;5293;51.464;-2.566;2023-04-25T02:58:43;12.17;;;7.27;;
10491;SDS011;5293;51.464;-2.566;2023-04-25T03:01:09;15.07;;;7.07;;
10491;SDS011;5293;51.464;-2.566;2023-04-25T03:03:35;16.20;;;7.00;;
10491;SDS011;5293;51.464;-2.566;2023-04-25T03:06:00;14.07;;;6.90;;
10491;SDS011;5293;51.464;-2.566;2023-04-25T03:08:26;15.67;;;7.00;;
10491;SDS011;5293;51.464;-2.566;2023-04-25T03:10:57;22.70;;;7.17;;
10491;SDS011;5293;51.464;-2.566;2023-04-25T03:13:23;12.77;;;6.60;;
10491;SDS011;5293;51.464;-2.566;2023-04-25T03:15:49;14.03;;;7.23;;
10491;SDS011;5293;51.464;-2.566;2023-04-25T03:18:15;12.27;;;6.57;;
10491;SDS011;5293;51.464;-2.566;2023-04-25T03:20:40;13.80;;;5.63;;
10491;SDS011;5293;51.464;-2.566;2023-04-25T03:23:06;14.50;;;5.17;;
10491;SDS011;5293;51.464;-2.566;2023-04-25T03:25:32;14.10;;;5.67;;
10491;SDS011;5293;51.464;-2.566;2023-04-25T03:27:58;12.43;;;5.33;;
10491;SDS011;5293;51.464;-2.566;2023-04-25T03:30:23;13.13;;;5.57;;
10491;SDS011;5293;51.464;-2.566;2023-04-25T03:32:49;13.40;;;6.00;;
10491;SDS011;5293;51.464;-2.566;2023-04-25T03:35:15;12.33;;;4.80;;
10491;SDS011;5293;51.464;-2.566;2023-04-25T03:37:41;12.30;;;4.70;;
10491;SDS011;5293;51.464;-2.566;2023-04-25T03:40:10;9.90;;;4.73;;
10491;SDS011;5293;51.464;-2.566;2023-04-25T03:42:36;14.40;;;5.43;;
10491;SDS011;5293;51.464;-2.566;2023-04-25T03:45:02;6.60;;;4.20;;
10491;SDS011;5293;51.464;-2.566;2023-04-25T03:47:28;10.17;;;4.70;;
10491;SDS011;5293;51.464;-2.566;2023-04-25T03:49:53;10.27;;;4.50;;
10491;SDS011;5293;51.464;-2.566;2023-04-25T03:52:19;14.30;;;5.13;;
10491;SDS011;5293;51.464;-2.566;2023-04-25T03:54:45;14.03;;;5.20;;
10491;SDS011;5293;51.464;-2.566;2023-04-25T03:57:11;12.57;;;5.57;;
10491;SDS011;5293;51.464;-2.566;2023-04-25T03:59:36;6.90;;;4.63;;
10491;SDS011;5293;51.464;-2.566;2023-04-25T04:02:02;9.87;;;5.63;;
10491;SDS011;5293;51.464;-2.566;2023-04-25T04:04:28;9.43;;;5.27;;
10491;SDS011;5293;51.464;-2.566;2023-04-25T04:06:54;14.30;;;6.20;;
10491;SDS011;5293;51.464;-2.566;2023-04-25T04:09:20;11.30;;;5.90;;
10491;SDS011;5293;51.464;-2.566;2023-04-25T04:11:45;11.77;;;6.77;;
10491;SDS011;5293;51.464;-2.566;2023-04-25T04:14:11;15.73;;;6.53;;
10491;SDS011;5293;51.464;-2.566;2023-04-25T04:16:37;11.10;;;6.10;;
10491;SDS011;5293;51.464;-2.566;2023-04-25T04:19:02;15.43;;;6.10;;
10491;SDS011;5293;51.464;-2.566;2023-04-25T04:21:28;10.53;;;6.27;;
10491;SDS011;5293;51.464;-2.566;2023-04-25T04:23:55;12.13;;;6.33;;
10491;SDS011;5293;51.464;-2.566;2023-04-25T04:26:22;14.17;;;6.10;;
10491;SDS011;5293;51.464;-2.566;2023-04-25T04:28:51;11.57;;;6.07;;
10491;SDS011;5293;51.464;-2.566;2023-04-25T04:31:19;10.67;;;6.53;;
10491;SDS011;5293;51.464;-2.566;2023-04-25T04:33:45;18.53;;;6.00;;
10491;SDS011;5293;51.464;-2.566;2023-04-25T04:36:11;11.77;;;6.07;;
10491;SDS011;5293;51.464;-2.566;2023-04-25T04:38:37;14.53;;;6.23;;
10491;SDS011;5293;51.464;-2.566;2023-04-25T04:41:03;10.70;;;5.30;;
10491;SDS011;5293;51.464;-2.566;2023-04-25T04:43:28;11.63;;;5.83;;
10491;SDS011;5293;51.464;-2.566;2023-04-25T04:45:55;15.47;;;6.00;;
10491;SDS011;5293;51.464;-2.566;2023-04-25T04:48:24;9.30;;;5.30;;
10491;SDS011;5293;51.464;-2.566;2023-04-25T04:50:49;12.33;;;5.10;;
10491;SDS011;5293;51.464;-2.566;2023-04-25T04:53:15;17.60;;;5.40;;
10491;SDS011;5293;51.464;-2.566;2023-04-25T04:55:41;14.60;;;6.30;;
10491;SDS011;5293;51.464;-2.566;2023-04-25T04:58:07;15.27;;;6.43;;
10491;SDS011;5293;51.464;-2.566;2023-04-25T05:00:32;14.47;;;5.93;;
10491;SDS011;5293;51.464;-2.566;2023-04-25T05:02:58;11.47;;;6.17;;
10491;SDS011;5293;51.464;-2.566;2023-04-25T05:05:24;10.17;;;5.57;;
10491;SDS011;5293;51.464;-2.566;2023-04-25T05:07:50;12.83;;;5.33;;
10491;SDS011;5293;51.464;-2.566;2023-04-25T05:10:16;11.10;;;5.90;;
10491;SDS011;5293;51.464;-2.566;2023-04-25T05:12:42;9.67;;;5.57;;
10491;SDS011;5293;51.464;-2.566;2023-04-25T05:15:08;7.33;;;5.07;;
10491;SDS011;5293;51.464;-2.566;2023-04-25T05:17:34;9.77;;;5.77;;
10491;SDS011;5293;51.464;-2.566;2023-04-25T05:20:00;13.73;;;5.93;;
10491;SDS011;5293;51.464;-2.566;2023-04-25T05:22:25;8.73;;;5.07;;
10491;SDS011;5293;51.464;-2.566;2023-04-25T05:24:51;14.90;;;5.60;;
10491;SDS011;5293;51.464;-2.566;2023-04-25T05:27:17;16.90;;;6.50;;
10491;SDS011;5293;51.464;-2.566;2023-04-25T05:29:43;11.30;;;5.57;;
10491;SDS011;5293;51.464;-2.566;2023-04-25T05:32:09;11.63;;;5.43;;
10491;SDS011;5293;51.464;-2.566;2023-04-25T05:34:35;11.80;;;5.83;;
10491;SDS011;5293;51.464;-2.566;2023-04-25T05:37:01;15.50;;;6.57;;
10491;SDS011;5293;51.464;-2.566;2023-04-25T05:39:27;9.87;;;5.53;;
10491;SDS011;5293;51.464;-2.566;2023-04-25T05:41:52;8.40;;;5.63;;
10491;SDS011;5293;51.464;-2.566;2023-04-25T05:44:18;11.40;;;5.97;;
10491;SDS011;5293;51.464;-2.566;2023-04-25T05:46:44;11.10;;;5.87;;
10491;SDS011;5293;51.464;-2.566;2023-04-25T05:49:10;11.57;;;6.57;;
10491;SDS011;5293;51.464;-2.566;2023-04-25T05:51:35;12.27;;;5.87;;
10491;SDS011;5293;51.464;-2.566;2023-04-25T05:54:01;9.40;;;5.37;;
10491;SDS011;5293;51.464;-2.566;2023-04-25T05:56:26;9.00;;;6.20;;
10491;SDS011;5293;51.464;-2.566;2023-04-25T05:58:52;14.83;;;5.93;;
10491;SDS011;5293;51.464;-2.566;2023-04-25T06:01:18;15.67;;;5.60;;
10491;SDS011;5293;51.464;-2.566;2023-04-25T06:03:44;13.47;;;5.90;;
10491;SDS011;5293;51.464;-2.566;2023-04-25T06:06:10;11.30;;;6.07;;
10491;SDS011;5293;51.464;-2.566;2023-04-25T06:08:36;9.53;;;6.27;;
10491;SDS011;5293;51.464;-2.566;2023-04-25T06:11:03;17.67;;;6.70;;
10491;SDS011;5293;51.464;-2.566;2023-04-25T06:13:29;13.53;;;6.37;;
10491;SDS011;5293;51.464;-2.566;2023-04-25T06:15:55;14.10;;;7.00;;
10491;SDS011;5293;51.464;-2.566;2023-04-25T06:18:20;16.17;;;6.73;;
10491;SDS011;5293;51.464;-2.566;2023-04-25T06:20:46;18.27;;;6.43;;
10491;SDS011;5293;51.464;-2.566;2023-04-25T06:23:12;10.23;;;6.20;;
10491;SDS011;5293;51.464;-2.566;2023-04-25T06:25:37;12.67;;;5.63;;
10491;SDS011;5293;51.464;-2.566;2023-04-25T06:28:03;13.43;;;5.47;;
10491;SDS011;5293;51.464;-2.566;2023-04-25T06:30:29;11.50;;;5.30;;
10491;SDS011;5293;51.464;-2.566;2023-04-25T06:32:54;12.63;;;5.20;;
10491;SDS011;5293;51.464;-2.566;2023-04-25T06:35:20;8.37;;;5.17;;
10491;SDS011;5293;51.464;-2.566;2023-04-25T06:37:46;9.20;;;4.93;;
10491;SDS011;5293;51.464;-2.566;2023-04-25T06:40:12;12.50;;;5.00;;
10491;SDS011;5293;51.464;-2.566;2023-04-25T06:42:37;7.83;;;4.70;;
10491;SDS011;5293;51.464;-2.566;2023-04-25T06:45:03;13.47;;;5.40;;
10491;SDS011;5293;51.464;-2.566;2023-04-25T06:47:29;6.23;;;4.40;;
10491;SDS011;5293;51.464;-2.566;2023-04-25T06:49:55;8.93;;;3.60;;
10491;SDS011;5293;51.464;-2.566;2023-04-25T06:52:20;12.13;;;4.33;;
10491;SDS011;5293;51.464;-2.566;2023-04-25T06:54:46;9.97;;;4.37;;
10491;SDS011;5293;51.464;-2.566;2023-04-25T06:57:12;8.00;;;4.53;;
10491;SDS011;5293;51.464;-2.566;2023-04-25T06:59:38;14.60;;;4.30;;
10491;SDS011;5293;51.464;-2.566;2023-04-25T07:02:04;11.37;;;3.87;;
10491;SDS011;5293;51.464;-2.566;2023-04-25T07:04:31;7.40;;;3.13;;
10491;SDS011;5293;51.464;-2.566;2023-04-25T07:06:56;8.70;;;3.80;;
10491;SDS011;5293;51.464;-2.566;2023-04-25T07:09:22;10.37;;;4.43;;
10491;SDS011;5293;51.464;-2.566;2023-04-25T07:11:48;12.60;;;3.37;;
10491;SDS011;5293;51.464;-2.566;2023-04-25T07:14:13;11.20;;;2.97;;
10491;SDS011;5293;51.464;-2.566;2023-04-25T07:16:40;7.23;;;3.10;;
10491;SDS011;5293;51.464;-2.566;2023-04-25T07:19:05;11.47;;;3.67;;
10491;SDS011;5293;51.464;-2.566;2023-04-25T07:21:31;7.43;;;3.07;;
10491;SDS011;5293;51.464;-2.566;2023-04-25T07:23:57;9.20;;;3.00;;
10491;SDS011;5293;51.464;-2.566;2023-04-25T07:26:23;4.03;;;2.83;;
10491;SDS011;5293;51.464;-2.566;2023-04-25T07:28:49;9.03;;;2.90;;
10491;SDS011;5293;51.464;-2.566;2023-04-25T07:31:16;7.97;;;2.80;;
10491;SDS011;5293;51.464;-2.566;2023-04-25T07:33:43;10.63;;;3.73;;
10491;SDS011;5293;51.464;-2.566;2023-04-25T07:36:10;6.40;;;3.10;;
10491;SDS011;5293;51.464;-2.566;2023-04-25T07:38:36;7.67;;;3.20;;
10491;SDS011;5293;51.464;-2.566;2023-04-25T07:41:01;7.77;;;2.87;;
10491;SDS011;5293;51.464;-2.566;2023-04-25T07:43:27;6.27;;;2.40;;
10491;SDS011;5293;51.464;-2.566;2023-04-25T07:45:53;11.33;;;4.43;;
10491;SDS011;5293;51.464;-2.566;2023-04-25T07:48:18;6.63;;;2.80;;
10491;SDS011;5293;51.464;-2.566;2023-04-25T07:50:44;8.13;;;3.10;;
10491;SDS011;5293;51.464;-2.566;2023-04-25T07:53:10;4.13;;;2.87;;
10491;SDS011;5293;51.464;-2.566;2023-04-25T07:55:36;6.97;;;2.50;;
10491;SDS011;5293;51.464;-2.566;2023-04-25T07:58:05;10.73;;;3.13;;
10491;SDS011;5293;51.464;-2.566;2023-04-25T08:00:31;7.97;;;3.10;;
10491;SDS011;5293;51.464;-2.566;2023-04-25T08:02:57;8.63;;;3.70;;
10491;SDS011;5293;51.464;-2.566;2023-04-25T08:05:22;9.73;;;2.30;;
10491;SDS011;5293;51.464;-2.566;2023-04-25T08:07:48;5.70;;;2.97;;
10491;SDS011;5293;51.464;-2.566;2023-04-25T08:10:15;6.93;;;2.73;;
10491;SDS011;5293;51.464;-2.566;2023-04-25T08:12:40;5.80;;;2.50;;
10491;SDS011;5293;51.464;-2.566;2023-04-25T08:15:06;6.57;;;2.40;;
10491;SDS011;5293;51.464;-2.566;2023-04-25T08:17:32;3.87;;;2.13;;
10491;SDS011;5293;51.464;-2.566;2023-04-25T08:19:58;7.37;;;2.47;;
10491;SDS011;5293;51.464;-2.566;2023-04-25T08:22:24;9.77;;;2.40;;
10491;SDS011;5293;51.464;-2.566;2023-04-25T08:24:50;7.90;;;2.50;;
10491;SDS011;5293;51.464;-2.566;2023-04-25T08:27:15;4.67;;;2.50;;
10491;SDS011;5293;51.464;-2.566;2023-04-25T08:29:42;5.53;;;2.80;;
10491;SDS011;5293;51.464;-2.566;2023-04-25T08:32:07;5.50;;;2.53;;
10491;SDS011;5293;51.464;-2.566;2023-04-25T08:34:33;6.53;;;2.13;;
10491;SDS011;5293;51.464;-2.566;2023-04-25T08:36:59;4.90;;;2.13;;
10491;SDS011;5293;51.464;-2.566;2023-04-25T08:39:24;11.47;;;2.03;;
10491;SDS011;5293;51.464;-2.566;2023-04-25T08:41:51;6.13;;;1.93;;
10491;SDS011;5293;51.464;-2.566;2023-04-25T08:44:17;4.30;;;1.90;;
10491;SDS011;5293;51.464;-2.566;2023-04-25T08:46:45;2.60;;;1.37;;
10491;SDS011;5293;51.464;-2.566;2023-04-25T08:49:14;6.33;;;1.93;;
10491;SDS011;5293;51.464;-2.566;2023-04-25T08:51:46;4.53;;;1.53;;
10491;SDS011;5293;51.464;-2.566;2023-04-25T08:54:13;5.60;;;1.77;;
10491;SDS011;5293;51.464;-2.566;2023-04-25T08:56:45;3.13;;;1.30;;
10491;SDS011;5293;51.464;-2.566;2023-04-25T08:59:12;3.33;;;1.33;;
10491;SDS011;5293;51.464;-2.566;2023-04-25T09:01:38;3.87;;;1.50;;
10491;SDS011;5293;51.464;-2.566;2023-04-25T09:04:05;4.93;;;1.53;;
10491;SDS011;5293;51.464;-2.566;2023-04-25T09:06:31;6.03;;;1.50;;
10491;SDS011;5293;51.464;-2.566;2023-04-25T09:09:01;3.10;;;1.50;;
10491;SDS011;5293;51.464;-2.566;2023-04-25T09:11:29;6.87;;;1.87;;
10491;SDS011;5293;51.464;-2.566;2023-04-25T09:14:12;2.80;;;1.63;;
10491;SDS011;5293;51.464;-2.566;2023-04-25T09:19:22;1.57;;;1.17;;
10491;SDS011;5293;51.464;-2.566;2023-04-25T09:21:49;6.00;;;1.80;;
10491;SDS011;5293;51.464;-2.566;2023-04-25T09:24:15;2.13;;;1.40;;
10491;SDS011;5293;51.464;-2.566;2023-04-25T09:26:40;5.93;;;1.43;;
10491;SDS011;5293;51.464;-2.566;2023-04-25T09:29:06;4.37;;;1.10;;
10491;SDS011;5293;51.464;-2.566;2023-04-25T09:31:33;1.47;;;0.97;;
10491;SDS011;5293;51.464;-2.566;2023-04-25T09:34:02;3.90;;;1.37;;
10491;SDS011;5293;51.464;-2.566;2023-04-25T09:36:29;4.10;;;1.27;;
10491;SDS011;5293;51.464;-2.566;2023-04-25T09:38:55;3.63;;;1.10;;
10491;SDS011;5293;51.464;-2.566;2023-04-25T09:41:24;3.70;;;1.20;;
10491;SDS011;5293;51.464;-2.566;2023-04-25T09:43:50;1.37;;;0.90;;
10491;SDS011;5293;51.464;-2.566;2023-04-25T09:46:15;5.93;;;1.17;;
10491;SDS011;5293;51.464;-2.566;2023-04-25T09:48:47;4.53;;;1.30;;
10491;SDS011;5293;51.464;-2.566;2023-04-25T09:51:15;3.70;;;1.20;;
10491;SDS011;5293;51.464;-2.566;2023-04-25T09:53:44;4.70;;;1.00;;
10491;SDS011;5293;51.464;-2.566;2023-04-25T09:56:11;3.05;;;1.20;;
10491;SDS011;5293;51.464;-2.566;2023-04-25T09:58:38;4.27;;;1.20;;
10491;SDS011;5293;51.464;-2.566;2023-04-25T10:01:14;2.57;;;1.07;;
10491;SDS011;5293;51.464;-2.566;2023-04-25T10:03:41;1.70;;;0.90;;
10491;SDS011;5293;51.464;-2.566;2023-04-25T10:06:13;1.77;;;0.90;;
10491;SDS011;5293;51.464;-2.566;2023-04-25T10:08:44;2.67;;;0.90;;
10491;SDS011;5293;51.464;-2.566;2023-04-25T10:11:11;1.43;;;0.97;;
10491;SDS011;5293;51.464;-2.566;2023-04-25T10:13:40;2.47;;;1.00;;
10491;SDS011;5293;51.464;-2.566;2023-04-25T10:16:07;2.47;;;0.80;;
10491;SDS011;5293;51.464;-2.566;2023-04-25T10:18:33;7.50;;;1.40;;
10491;SDS011;5293;51.464;-2.566;2023-04-25T10:21:00;3.20;;;1.10;;
10491;SDS011;5293;51.464;-2.566;2023-04-25T10:23:29;3.60;;;1.00;;
10491;SDS011;5293;51.464;-2.566;2023-04-25T10:25:55;1.17;;;0.90;;
10491;SDS011;5293;51.464;-2.566;2023-04-25T10:28:22;2.87;;;1.10;;
10491;SDS011;5293;51.464;-2.566;2023-04-25T10:31:03;2.57;;;0.80;;
10491;SDS011;5293;51.464;-2.566;2023-04-25T10:33:41;1.87;;;1.07;;
10491;SDS011;5293;51.464;-2.566;2023-04-25T10:36:11;2.37;;;0.90;;
10491;SDS011;5293;51.464;-2.566;2023-04-25T10:38:38;2.30;;;1.00;;
10491;SDS011;5293;51.464;-2.566;2023-04-25T10:41:08;6.03;;;1.20;;
10491;SDS011;5293;51.464;-2.566;2023-04-25T10:43:35;5.07;;;1.57;;
10491;SDS011;5293;51.464;-2.566;2023-04-25T10:46:23;3.13;;;1.70;;
10491;SDS011;5293;51.464;-2.566;2023-04-25T10:48:51;2.83;;;1.00;;
10491;SDS011;5293;51.464;-2.566;2023-04-25T10:51:19;3.00;;;1.20;;
10491;SDS011;5293;51.464;-2.566;2023-04-25T10:59:23;2.97;;;1.00;;
10491;SDS011;5293;51.464;-2.566;2023-04-25T11:01:53;4.33;;;1.50;;
10491;SDS011;5293;51.464;-2.566;2023-04-25T11:04:29;4.40;;;1.40;;
10491;SDS011;5293;51.464;-2.566;2023-04-25T11:07:15;6.40;;;1.57;;
10491;SDS011;5293;51.464;-2.566;2023-04-25T11:09:57;1.07;;;1.00;;
10491;SDS011;5293;51.464;-2.566;2023-04-25T11:12:25;5.10;;;1.60;;
10491;SDS011;5293;51.464;-2.566;2023-04-25T11:14:57;3.47;;;1.53;;
10491;SDS011;5293;51.464;-2.566;2023-04-25T11:17:27;4.10;;;1.30;;
10491;SDS011;5293;51.464;-2.566;2023-04-25T11:19:53;3.83;;;1.30;;
10491;SDS011;5293;51.464;-2.566;2023-04-25T11:22:19;2.87;;;1.40;;
10491;SDS011;5293;51.464;-2.566;2023-04-25T11:24:46;1.77;;;1.23;;
10491;SDS011;5293;51.464;-2.566;2023-04-25T11:27:12;3.00;;;1.30;;
10491;SDS011;5293;51.464;-2.566;2023-04-25T11:29:38;3.03;;;1.53;;
10491;SDS011;5293;51.464;-2.566;2023-04-25T11:32:04;2.30;;;1.37;;
10491;SDS011;5293;51.464;-2.566;2023-04-25T11:34:30;4.60;;;1.10;;
10491;SDS011;5293;51.464;-2.566;2023-04-25T11:36:58;4.20;;;1.40;;
10491;SDS011;5293;51.464;-2.566;2023-04-25T11:39:25;3.47;;;1.20;;
10491;SDS011;5293;51.464;-2.566;2023-04-25T11:41:51;5.37;;;1.33;;
10491;SDS011;5293;51.464;-2.566;2023-04-25T11:44:18;2.87;;;1.20;;
10491;SDS011;5293;51.464;-2.566;2023-04-25T11:46:44;2.63;;;1.20;;
10491;SDS011;5293;51.464;-2.566;2023-04-25T11:49:11;1.43;;;1.00;;
10491;SDS011;5293;51.464;-2.566;2023-04-25T11:51:46;3.07;;;1.17;;
10491;SDS011;5293;51.464;-2.566;2023-04-25T11:54:13;1.70;;;1.10;;
10491;SDS011;5293;51.464;-2.566;2023-04-25T11:56:43;1.87;;;1.10;;
10491;SDS011;5293;51.464;-2.566;2023-04-25T11:59:09;2.60;;;1.27;;
10491;SDS011;5293;51.464;-2.566;2023-04-25T12:01:36;2.40;;;1.10;;
10491;SDS011;5293;51.464;-2.566;2023-04-25T12:04:13;2.83;;;1.07;;
10491;SDS011;5293;51.464;-2.566;2023-04-25T12:06:40;1.33;;;0.90;;
10491;SDS011;5293;51.464;-2.566;2023-04-25T12:09:08;2.00;;;1.27;;
10491;SDS011;5293;51.464;-2.566;2023-04-25T12:11:42;4.00;;;1.20;;
10491;SDS011;5293;51.464;-2.566;2023-04-25T12:14:09;2.53;;;1.50;;
10491;SDS011;5293;51.464;-2.566;2023-04-25T12:16:45;5.17;;;1.23;;
10491;SDS011;5293;51.464;-2.566;2023-04-25T12:19:18;3.03;;;1.25;;
10491;SDS011;5293;51.464;-2.566;2023-04-25T12:21:45;4.20;;;1.23;;
10491;SDS011;5293;51.464;-2.566;2023-04-25T12:24:14;3.27;;;1.27;;
10491;SDS011;5293;51.464;-2.566;2023-04-25T12:26:58;3.17;;;1.00;;
10491;SDS011;5293;51.464;-2.566;2023-04-25T12:29:27;2.37;;;0.90;;
10491;SDS011;5293;51.464;-2.566;2023-04-25T12:31:54;2.77;;;1.00;;
10491;SDS011;5293;51.464;-2.566;2023-04-25T12:34:21;3.93;;;1.40;;
10491;SDS011;5293;51.464;-2.566;2023-04-25T12:36:48;2.47;;;1.43;;
10491;SDS011;5293;51.464;-2.566;2023-04-25T12:39:15;3.23;;;1.57;;
10491;SDS011;5293;51.464;-2.566;2023-04-25T12:41:50;1.00;;;0.90;;
10491;SDS011;5293;51.464;-2.566;2023-04-25T12:44:19;2.90;;;1.70;;
10491;SDS011;5293;51.464;-2.566;2023-04-25T12:46:46;4.87;;;1.50;;
10491;SDS011;5293;51.464;-2.566;2023-04-25T12:49:12;1.57;;;1.40;;
10491;SDS011;5293;51.464;-2.566;2023-04-25T12:51:38;3.80;;;1.20;;
10491;SDS011;5293;51.464;-2.566;2023-04-25T12:54:04;1.77;;;1.03;;
10491;SDS011;5293;51.464;-2.566;2023-04-25T12:56:31;7.00;;;1.20;;
10491;SDS011;5293;51.464;-2.566;2023-04-25T12:58:57;3.40;;;0.83;;
10491;SDS011;5293;51.464;-2.566;2023-04-25T13:01:23;3.00;;;1.40;;
10491;SDS011;5293;51.464;-2.566;2023-04-25T13:03:50;3.17;;;1.33;;
10491;SDS011;5293;51.464;-2.566;2023-04-25T13:06:16;4.47;;;1.37;;
10491;SDS011;5293;51.464;-2.566;2023-04-25T13:08:42;11.07;;;6.83;;
10491;SDS011;5293;51.464;-2.566;2023-04-25T13:11:08;4.23;;;1.33;;
10491;SDS011;5293;51.464;-2.566;2023-04-25T13:13:34;4.23;;;1.50;;
10491;SDS011;5293;51.464;-2.566;2023-04-25T13:16:03;5.63;;;1.40;;
10491;SDS011;5293;51.464;-2.566;2023-04-25T13:18:30;3.77;;;1.20;;
10491;SDS011;5293;51.464;-2.566;2023-04-25T13:20:56;4.63;;;1.23;;
10491;SDS011;5293;51.464;-2.566;2023-04-25T13:23:22;1.30;;;0.90;;
10491;SDS011;5293;51.464;-2.566;2023-04-25T13:25:50;3.00;;;1.30;;
10491;SDS011;5293;51.464;-2.566;2023-04-25T13:28:15;1.77;;;1.10;;
10491;SDS011;5293;51.464;-2.566;2023-04-25T13:30:41;2.65;;;1.20;;
10491;SDS011;5293;51.464;-2.566;2023-04-25T13:33:07;2.55;;;1.13;;
10491;SDS011;5293;51.464;-2.566;2023-04-25T13:35:33;1.23;;;1.07;;
10491;SDS011;5293;51.464;-2.566;2023-04-25T13:38:00;3.13;;;1.20;;
10491;SDS011;5293;51.464;-2.566;2023-04-25T13:40:26;0.83;;;0.80;;
10491;SDS011;5293;51.464;-2.566;2023-04-25T13:42:52;4.20;;;1.63;;
10491;SDS011;5293;51.464;-2.566;2023-04-25T13:45:18;3.03;;;1.50;;
10491;SDS011;5293;51.464;-2.566;2023-04-25T13:47:45;3.87;;;1.30;;
10491;SDS011;5293;51.464;-2.566;2023-04-25T13:50:10;1.43;;;0.97;;
10491;SDS011;5293;51.464;-2.566;2023-04-25T13:52:36;4.33;;;1.17;;
10491;SDS011;5293;51.464;-2.566;2023-04-25T13:55:02;2.60;;;1.13;;
10491;SDS011;5293;51.464;-2.566;2023-04-25T13:57:28;2.60;;;1.27;;
10491;SDS011;5293;51.464;-2.566;2023-04-25T13:59:57;3.30;;;1.10;;
10491;SDS011;5293;51.464;-2.566;2023-04-25T14:02:22;1.33;;;1.00;;
10491;SDS011;5293;51.464;-2.566;2023-04-25T14:04:48;2.80;;;1.27;;
10491;SDS011;5293;51.464;-2.566;2023-04-25T14:07:14;3.87;;;1.40;;
10491;SDS011;5293;51.464;-2.566;2023-04-25T14:09:43;1.57;;;1.37;;
10491;SDS011;5293;51.464;-2.566;2023-04-25T14:12:09;2.20;;;1.40;;
10491;SDS011;5293;51.464;-2.566;2023-04-25T14:14:36;1.77;;;1.33;;
10491;SDS011;5293;51.464;-2.566;2023-04-25T14:17:01;2.17;;;1.53;;
10491;SDS011;5293;51.464;-2.566;2023-04-25T14:19:28;3.80;;;1.57;;
10491;SDS011;5293;51.464;-2.566;2023-04-25T14:21:54;4.87;;;1.40;;
10491;SDS011;5293;51.464;-2.566;2023-04-25T14:24:20;2.80;;;1.17;;
10491;SDS011;5293;51.464;-2.566;2023-04-25T14:26:45;2.10;;;1.30;;
10491;SDS011;5293;51.464;-2.566;2023-04-25T14:29:11;2.80;;;1.47;;
10491;SDS011;5293;51.464;-2.566;2023-04-25T14:31:37;3.47;;;1.20;;
10491;SDS011;5293;51.464;-2.566;2023-04-25T14:34:07;3.07;;;1.57;;
10491;SDS011;5293;51.464;-2.566;2023-04-25T14:36:33;2.40;;;1.60;;
10491;SDS011;5293;51.464;-2.566;2023-04-25T14:38:59;1.97;;;1.40;;
10491;SDS011;5293;51.464;-2.566;2023-04-25T14:41:25;2.20;;;1.07;;
10491;SDS011;5293;51.464;-2.566;2023-04-25T14:43:51;2.67;;;1.20;;
10491;SDS011;5293;51.464;-2.566;2023-04-25T14:46:18;2.90;;;1.10;;
10491;SDS011;5293;51.464;-2.566;2023-04-25T14:48:44;2.57;;;1.70;;